sensor_id;sensor_type;location;lat;lon;timestamp;P1;durP1;ratioP1;P2;durP2;ratioP2
51614;SDS011;37695;52.960;6.188;2023-05-10T00:02:20;7.47;;;5.20;;
51614;SDS011;37695;52.960;6.188;2023-05-10T00:04:46;6.65;;;5.05;;
51614;SDS011;37695;52.960;6.188;2023-05-10T00:07:11;7.05;;;5.57;;
51614;SDS011;37695;52.960;6.188;2023-05-10T00:09:37;7.15;;;5.57;;
51614;SDS011;37695;52.960;6.188;2023-05-10T00:12:02;8.70;;;6.80;;
51614;SDS011;37695;52.960;6.188;2023-05-10T00:14:28;8.98;;;6.97;;
51614;SDS011;37695;52.960;6.188;2023-05-10T00:16:54;10.27;;;7.57;;
51614;SDS011;37695;52.960;6.188;2023-05-10T00:19:20;10.57;;;8.48;;
51614;SDS011;37695;52.960;6.188;2023-05-10T00:21:45;9.95;;;8.05;;
51614;SDS011;37695;52.960;6.188;2023-05-10T00:24:11;9.95;;;8.15;;
51614;SDS011;37695;52.960;6.188;2023-05-10T00:26:37;11.15;;;8.60;;
51614;SDS011;37695;52.960;6.188;2023-05-10T00:29:02;10.18;;;8.20;;
51614;SDS011;37695;52.960;6.188;2023-05-10T00:31:28;9.68;;;8.23;;
51614;SDS011;37695;52.960;6.188;2023-05-10T00:33:53;10.65;;;8.65;;
51614;SDS011;37695;52.960;6.188;2023-05-10T00:36:19;11.30;;;9.30;;
51614;SDS011;37695;52.960;6.188;2023-05-10T00:38:45;10.27;;;7.80;;
51614;SDS011;37695;52.960;6.188;2023-05-10T00:41:11;9.95;;;8.02;;
51614;SDS011;37695;52.960;6.188;2023-05-10T00:43:36;10.38;;;7.65;;
51614;SDS011;37695;52.960;6.188;2023-05-10T00:46:02;10.38;;;7.72;;
51614;SDS011;37695;52.960;6.188;2023-05-10T00:48:29;9.05;;;7.18;;
51614;SDS011;37695;52.960;6.188;2023-05-10T00:50:54;8.90;;;6.93;;
51614;SDS011;37695;52.960;6.188;2023-05-10T00:53:20;8.50;;;7.22;;
51614;SDS011;37695;52.960;6.188;2023-05-10T00:55:46;9.73;;;6.90;;
51614;SDS011;37695;52.960;6.188;2023-05-10T00:58:12;8.55;;;6.43;;
51614;SDS011;37695;52.960;6.188;2023-05-10T01:00:37;8.32;;;6.10;;
51614;SDS011;37695;52.960;6.188;2023-05-10T01:03:06;7.13;;;6.05;;
51614;SDS011;37695;52.960;6.188;2023-05-10T01:05:32;9.13;;;6.18;;
51614;SDS011;37695;52.960;6.188;2023-05-10T01:07:58;8.60;;;5.97;;
51614;SDS011;37695;52.960;6.188;2023-05-10T01:10:23;9.85;;;6.53;;
51614;SDS011;37695;52.960;6.188;2023-05-10T01:12:49;8.88;;;6.97;;
51614;SDS011;37695;52.960;6.188;2023-05-10T01:15:15;8.25;;;6.28;;
51614;SDS011;37695;52.960;6.188;2023-05-10T01:17:42;9.40;;;6.93;;
51614;SDS011;37695;52.960;6.188;2023-05-10T01:20:10;8.63;;;6.53;;
51614;SDS011;37695;52.960;6.188;2023-05-10T01:30:50;8.90;;;6.43;;
51614;SDS011;37695;52.960;6.188;2023-05-10T01:33:39;7.60;;;5.50;;
51614;SDS011;37695;52.960;6.188;2023-05-10T01:36:32;7.53;;;5.75;;
51614;SDS011;37695;52.960;6.188;2023-05-10T01:39:20;7.05;;;4.88;;
51614;SDS011;37695;52.960;6.188;2023-05-10T01:41:52;7.25;;;5.25;;
51614;SDS011;37695;52.960;6.188;2023-05-10T01:44:39;7.50;;;5.60;;
51614;SDS011;37695;52.960;6.188;2023-05-10T01:47:15;7.28;;;5.57;;
51614;SDS011;37695;52.960;6.188;2023-05-10T01:49:49;7.15;;;5.30;;
51614;SDS011;37695;52.960;6.188;2023-05-10T01:55:02;6.18;;;5.15;;
51614;SDS011;37695;52.960;6.188;2023-05-10T01:57:32;6.20;;;4.45;;
51614;SDS011;37695;52.960;6.188;2023-05-10T01:59:59;6.13;;;4.53;;
51614;SDS011;37695;52.960;6.188;2023-05-10T02:02:25;6.03;;;4.22;;
51614;SDS011;37695;52.960;6.188;2023-05-10T02:04:53;6.05;;;4.10;;
51614;SDS011;37695;52.960;6.188;2023-05-10T02:07:20;7.88;;;4.00;;
51614;SDS011;37695;52.960;6.188;2023-05-10T02:09:48;6.13;;;4.70;;
51614;SDS011;37695;52.960;6.188;2023-05-10T02:12:14;6.30;;;4.45;;
51614;SDS011;37695;52.960;6.188;2023-05-10T02:14:41;5.57;;;4.13;;
51614;SDS011;37695;52.960;6.188;2023-05-10T02:17:08;6.10;;;4.10;;
51614;SDS011;37695;52.960;6.188;2023-05-10T02:19:36;6.75;;;4.38;;
51614;SDS011;37695;52.960;6.188;2023-05-10T02:22:04;7.07;;;5.07;;
51614;SDS011;37695;52.960;6.188;2023-05-10T02:24:30;6.68;;;4.63;;
51614;SDS011;37695;52.960;6.188;2023-05-10T02:26:59;6.80;;;4.85;;
51614;SDS011;37695;52.960;6.188;2023-05-10T02:29:27;6.85;;;4.88;;
51614;SDS011;37695;52.960;6.188;2023-05-10T02:31:54;6.63;;;4.97;;
51614;SDS011;37695;52.960;6.188;2023-05-10T02:34:21;8.48;;;4.30;;
51614;SDS011;37695;52.960;6.188;2023-05-10T02:36:48;6.80;;;4.63;;
51614;SDS011;37695;52.960;6.188;2023-05-10T02:39:15;6.07;;;4.30;;
51614;SDS011;37695;52.960;6.188;2023-05-10T02:41:43;7.85;;;4.65;;
51614;SDS011;37695;52.960;6.188;2023-05-10T02:44:11;6.30;;;3.85;;
51614;SDS011;37695;52.960;6.188;2023-05-10T02:46:41;6.90;;;4.43;;
51614;SDS011;37695;52.960;6.188;2023-05-10T02:49:07;7.57;;;4.32;;
51614;SDS011;37695;52.960;6.188;2023-05-10T02:51:34;5.85;;;4.13;;
51614;SDS011;37695;52.960;6.188;2023-05-10T02:54:12;6.88;;;4.43;;
51614;SDS011;37695;52.960;6.188;2023-05-10T02:56:54;6.55;;;4.20;;
51614;SDS011;37695;52.960;6.188;2023-05-10T02:59:22;5.45;;;4.07;;
51614;SDS011;37695;52.960;6.188;2023-05-10T03:01:48;4.90;;;3.50;;
51614;SDS011;37695;52.960;6.188;2023-05-10T03:04:14;5.88;;;3.75;;
51614;SDS011;37695;52.960;6.188;2023-05-10T03:06:40;6.05;;;4.22;;
51614;SDS011;37695;52.960;6.188;2023-05-10T03:09:06;6.10;;;4.03;;
51614;SDS011;37695;52.960;6.188;2023-05-10T03:14:25;6.72;;;3.67;;
51614;SDS011;37695;52.960;6.188;2023-05-10T03:17:10;5.97;;;3.58;;
51614;SDS011;37695;52.960;6.188;2023-05-10T03:19:54;6.63;;;3.53;;
51614;SDS011;37695;52.960;6.188;2023-05-10T03:22:25;4.88;;;3.20;;
51614;SDS011;37695;52.960;6.188;2023-05-10T03:24:55;5.10;;;3.20;;
51614;SDS011;37695;52.960;6.188;2023-05-10T03:27:23;4.63;;;3.47;;
51614;SDS011;37695;52.960;6.188;2023-05-10T03:29:51;5.85;;;3.60;;
51614;SDS011;37695;52.960;6.188;2023-05-10T03:32:19;5.20;;;3.70;;
51614;SDS011;37695;52.960;6.188;2023-05-10T03:34:45;5.18;;;3.80;;
51614;SDS011;37695;52.960;6.188;2023-05-10T03:37:10;5.20;;;3.47;;
51614;SDS011;37695;52.960;6.188;2023-05-10T03:39:36;6.57;;;3.60;;
51614;SDS011;37695;52.960;6.188;2023-05-10T03:42:02;4.95;;;3.50;;
51614;SDS011;37695;52.960;6.188;2023-05-10T03:44:27;5.57;;;3.83;;
51614;SDS011;37695;52.960;6.188;2023-05-10T03:46:53;4.88;;;3.38;;
51614;SDS011;37695;52.960;6.188;2023-05-10T03:49:18;5.07;;;3.65;;
51614;SDS011;37695;52.960;6.188;2023-05-10T03:51:44;4.93;;;3.63;;
51614;SDS011;37695;52.960;6.188;2023-05-10T03:54:09;5.28;;;4.18;;
51614;SDS011;37695;52.960;6.188;2023-05-10T03:56:35;5.15;;;3.72;;
51614;SDS011;37695;52.960;6.188;2023-05-10T03:59:00;4.75;;;3.97;;
51614;SDS011;37695;52.960;6.188;2023-05-10T04:01:26;7.78;;;4.22;;
51614;SDS011;37695;52.960;6.188;2023-05-10T04:03:52;5.43;;;3.75;;
51614;SDS011;37695;52.960;6.188;2023-05-10T04:06:17;4.80;;;3.92;;
51614;SDS011;37695;52.960;6.188;2023-05-10T04:08:43;5.93;;;3.80;;
51614;SDS011;37695;52.960;6.188;2023-05-10T04:11:10;4.63;;;3.55;;
51614;SDS011;37695;52.960;6.188;2023-05-10T04:13:37;4.32;;;3.20;;
51614;SDS011;37695;52.960;6.188;2023-05-10T04:16:03;4.10;;;3.40;;
51614;SDS011;37695;52.960;6.188;2023-05-10T04:18:29;4.82;;;3.00;;
51614;SDS011;37695;52.960;6.188;2023-05-10T04:20:54;3.92;;;2.88;;
51614;SDS011;37695;52.960;6.188;2023-05-10T04:23:20;5.68;;;2.95;;
51614;SDS011;37695;52.960;6.188;2023-05-10T04:25:46;4.10;;;2.97;;
51614;SDS011;37695;52.960;6.188;2023-05-10T04:28:11;4.03;;;3.05;;
51614;SDS011;37695;52.960;6.188;2023-05-10T04:30:37;4.18;;;3.10;;
51614;SDS011;37695;52.960;6.188;2023-05-10T04:33:02;3.95;;;3.22;;
51614;SDS011;37695;52.960;6.188;2023-05-10T04:35:28;4.15;;;3.10;;
51614;SDS011;37695;52.960;6.188;2023-05-10T04:37:54;4.18;;;3.08;;
51614;SDS011;37695;52.960;6.188;2023-05-10T04:40:19;4.90;;;3.30;;
51614;SDS011;37695;52.960;6.188;2023-05-10T04:42:45;3.78;;;3.10;;
51614;SDS011;37695;52.960;6.188;2023-05-10T04:45:11;4.10;;;3.13;;
51614;SDS011;37695;52.960;6.188;2023-05-10T04:47:37;4.03;;;3.05;;
51614;SDS011;37695;52.960;6.188;2023-05-10T04:50:03;4.00;;;3.15;;
51614;SDS011;37695;52.960;6.188;2023-05-10T04:52:29;5.05;;;3.20;;
51614;SDS011;37695;52.960;6.188;2023-05-10T04:54:55;4.20;;;2.88;;
51614;SDS011;37695;52.960;6.188;2023-05-10T04:57:20;4.25;;;3.20;;
51614;SDS011;37695;52.960;6.188;2023-05-10T04:59:46;3.72;;;2.88;;
51614;SDS011;37695;52.960;6.188;2023-05-10T05:02:11;4.47;;;2.90;;
51614;SDS011;37695;52.960;6.188;2023-05-10T05:04:37;4.45;;;3.15;;
51614;SDS011;37695;52.960;6.188;2023-05-10T05:07:02;4.45;;;3.10;;
51614;SDS011;37695;52.960;6.188;2023-05-10T05:09:28;3.75;;;2.90;;
51614;SDS011;37695;52.960;6.188;2023-05-10T05:11:53;3.35;;;2.67;;
51614;SDS011;37695;52.960;6.188;2023-05-10T05:14:19;3.42;;;2.40;;
51614;SDS011;37695;52.960;6.188;2023-05-10T05:16:46;3.38;;;2.75;;
51614;SDS011;37695;52.960;6.188;2023-05-10T05:19:11;2.95;;;2.28;;
51614;SDS011;37695;52.960;6.188;2023-05-10T05:21:37;3.25;;;2.30;;
51614;SDS011;37695;52.960;6.188;2023-05-10T05:24:03;6.72;;;2.70;;
51614;SDS011;37695;52.960;6.188;2023-05-10T05:26:29;3.78;;;2.35;;
51614;SDS011;37695;52.960;6.188;2023-05-10T05:28:54;3.38;;;2.80;;
51614;SDS011;37695;52.960;6.188;2023-05-10T05:31:20;3.15;;;2.42;;
51614;SDS011;37695;52.960;6.188;2023-05-10T05:33:46;3.28;;;2.30;;
51614;SDS011;37695;52.960;6.188;2023-05-10T05:36:11;3.17;;;2.45;;
51614;SDS011;37695;52.960;6.188;2023-05-10T05:38:37;3.78;;;2.47;;
51614;SDS011;37695;52.960;6.188;2023-05-10T05:41:02;3.15;;;2.30;;
51614;SDS011;37695;52.960;6.188;2023-05-10T05:43:28;3.20;;;2.47;;
51614;SDS011;37695;52.960;6.188;2023-05-10T05:45:54;3.53;;;2.63;;
51614;SDS011;37695;52.960;6.188;2023-05-10T05:48:20;3.10;;;2.25;;
51614;SDS011;37695;52.960;6.188;2023-05-10T05:50:45;4.43;;;2.47;;
51614;SDS011;37695;52.960;6.188;2023-05-10T05:53:11;3.35;;;2.08;;
51614;SDS011;37695;52.960;6.188;2023-05-10T05:55:37;3.35;;;2.30;;
51614;SDS011;37695;52.960;6.188;2023-05-10T05:58:02;2.25;;;1.80;;
51614;SDS011;37695;52.960;6.188;2023-05-10T06:00:28;2.42;;;1.70;;
51614;SDS011;37695;52.960;6.188;2023-05-10T06:02:53;2.85;;;2.05;;
51614;SDS011;37695;52.960;6.188;2023-05-10T06:05:19;2.95;;;2.13;;
51614;SDS011;37695;52.960;6.188;2023-05-10T06:07:45;4.82;;;1.77;;
51614;SDS011;37695;52.960;6.188;2023-05-10T06:10:11;2.92;;;2.38;;
51614;SDS011;37695;52.960;6.188;2023-05-10T06:12:37;2.70;;;2.00;;
51614;SDS011;37695;52.960;6.188;2023-05-10T06:15:02;3.58;;;2.35;;
51614;SDS011;37695;52.960;6.188;2023-05-10T06:17:28;4.18;;;2.50;;
51614;SDS011;37695;52.960;6.188;2023-05-10T06:19:54;3.95;;;2.70;;
51614;SDS011;37695;52.960;6.188;2023-05-10T06:22:20;4.32;;;2.70;;
51614;SDS011;37695;52.960;6.188;2023-05-10T06:24:47;3.75;;;2.53;;
51614;SDS011;37695;52.960;6.188;2023-05-10T06:27:13;4.40;;;3.08;;
51614;SDS011;37695;52.960;6.188;2023-05-10T06:29:39;3.97;;;2.78;;
51614;SDS011;37695;52.960;6.188;2023-05-10T06:32:04;4.45;;;3.15;;
51614;SDS011;37695;52.960;6.188;2023-05-10T06:34:30;5.30;;;3.75;;
51614;SDS011;37695;52.960;6.188;2023-05-10T06:36:56;7.40;;;3.40;;
51614;SDS011;37695;52.960;6.188;2023-05-10T06:39:22;4.60;;;3.28;;
51614;SDS011;37695;52.960;6.188;2023-05-10T06:41:47;4.82;;;3.22;;
51614;SDS011;37695;52.960;6.188;2023-05-10T06:44:13;4.20;;;3.03;;
51614;SDS011;37695;52.960;6.188;2023-05-10T06:46:38;5.90;;;3.75;;
51614;SDS011;37695;52.960;6.188;2023-05-10T06:49:04;4.80;;;3.15;;
51614;SDS011;37695;52.960;6.188;2023-05-10T06:51:29;5.35;;;3.30;;
51614;SDS011;37695;52.960;6.188;2023-05-10T06:53:55;4.78;;;2.88;;
51614;SDS011;37695;52.960;6.188;2023-05-10T06:56:21;4.38;;;3.13;;
51614;SDS011;37695;52.960;6.188;2023-05-10T06:58:47;4.97;;;3.45;;
51614;SDS011;37695;52.960;6.188;2023-05-10T07:01:13;5.18;;;3.55;;
51614;SDS011;37695;52.960;6.188;2023-05-10T07:03:39;4.68;;;2.95;;
51614;SDS011;37695;52.960;6.188;2023-05-10T07:06:04;4.00;;;3.05;;
51614;SDS011;37695;52.960;6.188;2023-05-10T07:08:31;4.22;;;2.97;;
51614;SDS011;37695;52.960;6.188;2023-05-10T07:11:06;5.45;;;3.60;;
51614;SDS011;37695;52.960;6.188;2023-05-10T07:15:58;5.30;;;3.17;;
51614;SDS011;37695;52.960;6.188;2023-05-10T07:18:25;5.53;;;3.40;;
51614;SDS011;37695;52.960;6.188;2023-05-10T07:20:51;6.65;;;3.08;;
51614;SDS011;37695;52.960;6.188;2023-05-10T07:23:17;6.63;;;3.00;;
51614;SDS011;37695;52.960;6.188;2023-05-10T07:25:44;3.28;;;2.30;;
51614;SDS011;37695;52.960;6.188;2023-05-10T07:28:14;4.78;;;2.92;;
51614;SDS011;37695;52.960;6.188;2023-05-10T07:30:41;4.28;;;2.60;;
51614;SDS011;37695;52.960;6.188;2023-05-10T07:33:07;4.78;;;2.85;;
51614;SDS011;37695;52.960;6.188;2023-05-10T07:35:34;3.95;;;2.58;;
51614;SDS011;37695;52.960;6.188;2023-05-10T07:37:59;4.15;;;2.80;;
51614;SDS011;37695;52.960;6.188;2023-05-10T07:40:25;4.82;;;2.63;;
51614;SDS011;37695;52.960;6.188;2023-05-10T07:42:50;3.85;;;2.50;;
51614;SDS011;37695;52.960;6.188;2023-05-10T07:45:16;3.33;;;2.33;;
51614;SDS011;37695;52.960;6.188;2023-05-10T07:47:42;3.67;;;2.53;;
51614;SDS011;37695;52.960;6.188;2023-05-10T07:50:08;2.95;;;2.13;;
51614;SDS011;37695;52.960;6.188;2023-05-10T07:52:33;4.75;;;2.22;;
51614;SDS011;37695;52.960;6.188;2023-05-10T07:54:59;3.28;;;2.35;;
51614;SDS011;37695;52.960;6.188;2023-05-10T07:57:25;3.13;;;2.10;;
51614;SDS011;37695;52.960;6.188;2023-05-10T07:59:50;2.88;;;2.10;;
51614;SDS011;37695;52.960;6.188;2023-05-10T08:02:16;3.38;;;2.15;;
51614;SDS011;37695;52.960;6.188;2023-05-10T08:04:41;2.40;;;1.85;;
51614;SDS011;37695;52.960;6.188;2023-05-10T08:07:07;3.35;;;2.10;;
51614;SDS011;37695;52.960;6.188;2023-05-10T08:09:32;3.58;;;1.98;;
51614;SDS011;37695;52.960;6.188;2023-05-10T08:11:58;5.20;;;2.17;;
51614;SDS011;37695;52.960;6.188;2023-05-10T08:14:24;5.35;;;2.20;;
51614;SDS011;37695;52.960;6.188;2023-05-10T08:16:51;3.42;;;2.17;;
51614;SDS011;37695;52.960;6.188;2023-05-10T08:19:16;3.33;;;2.15;;
51614;SDS011;37695;52.960;6.188;2023-05-10T08:21:44;3.35;;;2.20;;
51614;SDS011;37695;52.960;6.188;2023-05-10T08:24:10;3.80;;;2.10;;
51614;SDS011;37695;52.960;6.188;2023-05-10T08:26:36;3.65;;;2.20;;
51614;SDS011;37695;52.960;6.188;2023-05-10T08:29:02;3.95;;;2.60;;
51614;SDS011;37695;52.960;6.188;2023-05-10T08:31:28;2.53;;;2.10;;
51614;SDS011;37695;52.960;6.188;2023-05-10T08:33:54;3.28;;;2.40;;
51614;SDS011;37695;52.960;6.188;2023-05-10T08:36:19;3.25;;;2.13;;
51614;SDS011;37695;52.960;6.188;2023-05-10T08:38:50;3.83;;;2.08;;
51614;SDS011;37695;52.960;6.188;2023-05-10T08:41:17;3.65;;;2.17;;
51614;SDS011;37695;52.960;6.188;2023-05-10T08:43:49;2.70;;;1.95;;
51614;SDS011;37695;52.960;6.188;2023-05-10T08:46:16;3.80;;;2.30;;
51614;SDS011;37695;52.960;6.188;2023-05-10T08:48:47;3.42;;;2.47;;
51614;SDS011;37695;52.960;6.188;2023-05-10T08:51:15;4.18;;;2.47;;
51614;SDS011;37695;52.960;6.188;2023-05-10T08:53:46;3.28;;;2.47;;
51614;SDS011;37695;52.960;6.188;2023-05-10T08:56:13;3.60;;;2.40;;
51614;SDS011;37695;52.960;6.188;2023-05-10T08:58:40;3.78;;;1.95;;
51614;SDS011;37695;52.960;6.188;2023-05-10T09:01:06;3.38;;;2.40;;
51614;SDS011;37695;52.960;6.188;2023-05-10T09:03:33;4.07;;;2.20;;
51614;SDS011;37695;52.960;6.188;2023-05-10T09:06:00;3.50;;;2.30;;
51614;SDS011;37695;52.960;6.188;2023-05-10T09:08:26;3.38;;;2.03;;
51614;SDS011;37695;52.960;6.188;2023-05-10T09:10:52;4.25;;;2.42;;
51614;SDS011;37695;52.960;6.188;2023-05-10T09:13:18;4.55;;;2.47;;
51614;SDS011;37695;52.960;6.188;2023-05-10T09:15:45;2.63;;;2.10;;
51614;SDS011;37695;52.960;6.188;2023-05-10T09:18:12;3.85;;;2.50;;
51614;SDS011;37695;52.960;6.188;2023-05-10T09:20:37;4.32;;;2.45;;
51614;SDS011;37695;52.960;6.188;2023-05-10T09:23:03;3.72;;;2.55;;
51614;SDS011;37695;52.960;6.188;2023-05-10T09:25:29;4.85;;;2.90;;
51614;SDS011;37695;52.960;6.188;2023-05-10T09:27:58;5.20;;;3.10;;
51614;SDS011;37695;52.960;6.188;2023-05-10T09:32:50;4.70;;;3.03;;
51614;SDS011;37695;52.960;6.188;2023-05-10T09:35:18;6.10;;;2.85;;
51614;SDS011;37695;52.960;6.188;2023-05-10T09:37:49;4.32;;;2.80;;
51614;SDS011;37695;52.960;6.188;2023-05-10T09:40:17;5.47;;;2.90;;
51614;SDS011;37695;52.960;6.188;2023-05-10T09:42:53;4.63;;;3.20;;
51614;SDS011;37695;52.960;6.188;2023-05-10T09:45:24;4.53;;;3.17;;
51614;SDS011;37695;52.960;6.188;2023-05-10T09:47:54;5.30;;;3.40;;
51614;SDS011;37695;52.960;6.188;2023-05-10T09:50:20;4.63;;;3.13;;
51614;SDS011;37695;52.960;6.188;2023-05-10T09:52:47;5.28;;;3.35;;
51614;SDS011;37695;52.960;6.188;2023-05-10T09:55:14;5.35;;;3.90;;
51614;SDS011;37695;52.960;6.188;2023-05-10T09:57:40;4.38;;;3.38;;
51614;SDS011;37695;52.960;6.188;2023-05-10T10:00:07;5.47;;;3.78;;
51614;SDS011;37695;52.960;6.188;2023-05-10T10:02:35;6.15;;;3.67;;
51614;SDS011;37695;52.960;6.188;2023-05-10T10:05:01;5.18;;;3.55;;
51614;SDS011;37695;52.960;6.188;2023-05-10T10:07:28;4.40;;;3.20;;
51614;SDS011;37695;52.960;6.188;2023-05-10T10:09:54;4.82;;;3.28;;
51614;SDS011;37695;52.960;6.188;2023-05-10T10:12:20;5.03;;;3.25;;
51614;SDS011;37695;52.960;6.188;2023-05-10T10:14:46;5.53;;;3.38;;
51614;SDS011;37695;52.960;6.188;2023-05-10T10:17:15;4.75;;;3.40;;
51614;SDS011;37695;52.960;6.188;2023-05-10T10:19:42;6.15;;;3.38;;
51614;SDS011;37695;52.960;6.188;2023-05-10T10:22:07;4.68;;;3.45;;
51614;SDS011;37695;52.960;6.188;2023-05-10T10:24:35;4.35;;;3.40;;
51614;SDS011;37695;52.960;6.188;2023-05-10T10:27:07;5.47;;;3.25;;
51614;SDS011;37695;52.960;6.188;2023-05-10T10:29:44;4.68;;;3.13;;
51614;SDS011;37695;52.960;6.188;2023-05-10T10:32:33;6.00;;;2.92;;
51614;SDS011;37695;52.960;6.188;2023-05-10T10:35:14;4.78;;;3.08;;
51614;SDS011;37695;52.960;6.188;2023-05-10T10:37:42;3.60;;;2.70;;
51614;SDS011;37695;52.960;6.188;2023-05-10T10:42:58;4.68;;;2.65;;
51614;SDS011;37695;52.960;6.188;2023-05-10T10:48:39;5.28;;;2.90;;
51614;SDS011;37695;52.960;6.188;2023-05-10T10:51:05;4.35;;;2.95;;
51614;SDS011;37695;52.960;6.188;2023-05-10T10:53:31;3.95;;;2.90;;
51614;SDS011;37695;52.960;6.188;2023-05-10T10:56:10;4.40;;;2.80;;
51614;SDS011;37695;52.960;6.188;2023-05-10T10:58:38;3.97;;;2.75;;
51614;SDS011;37695;52.960;6.188;2023-05-10T11:03:37;5.47;;;3.00;;
51614;SDS011;37695;52.960;6.188;2023-05-10T11:06:02;6.50;;;3.00;;
51614;SDS011;37695;52.960;6.188;2023-05-10T11:08:29;4.05;;;2.90;;
51614;SDS011;37695;52.960;6.188;2023-05-10T11:16:23;3.63;;;2.50;;
51614;SDS011;37695;52.960;6.188;2023-05-10T11:18:53;3.83;;;2.40;;
51614;SDS011;37695;52.960;6.188;2023-05-10T11:21:22;3.38;;;2.35;;
51614;SDS011;37695;52.960;6.188;2023-05-10T11:23:57;3.70;;;2.42;;
51614;SDS011;37695;52.960;6.188;2023-05-10T11:26:25;3.65;;;2.45;;
51614;SDS011;37695;52.960;6.188;2023-05-10T11:28:55;4.22;;;2.55;;
51614;SDS011;37695;52.960;6.188;2023-05-10T11:31:21;3.40;;;2.45;;
51614;SDS011;37695;52.960;6.188;2023-05-10T11:38:46;4.40;;;3.15;;
51614;SDS011;37695;52.960;6.188;2023-05-10T11:41:13;4.75;;;3.10;;
51614;SDS011;37695;52.960;6.188;2023-05-10T11:43:40;7.10;;;5.05;;
51614;SDS011;37695;52.960;6.188;2023-05-10T11:46:07;7.18;;;5.05;;
51614;SDS011;37695;52.960;6.188;2023-05-10T11:48:34;8.45;;;6.25;;
51614;SDS011;37695;52.960;6.188;2023-05-10T11:51:00;8.18;;;5.45;;
51614;SDS011;37695;52.960;6.188;2023-05-10T11:53:27;9.50;;;5.90;;
51614;SDS011;37695;52.960;6.188;2023-05-10T11:56:02;8.88;;;6.90;;
51614;SDS011;37695;52.960;6.188;2023-05-10T11:58:29;11.60;;;6.25;;
51614;SDS011;37695;52.960;6.188;2023-05-10T12:00:55;9.15;;;6.43;;
51614;SDS011;37695;52.960;6.188;2023-05-10T12:03:21;10.40;;;7.07;;
51614;SDS011;37695;52.960;6.188;2023-05-10T12:05:47;10.02;;;6.78;;
51614;SDS011;37695;52.960;6.188;2023-05-10T12:08:13;10.25;;;7.20;;
51614;SDS011;37695;52.960;6.188;2023-05-10T12:10:40;9.10;;;7.25;;
51614;SDS011;37695;52.960;6.188;2023-05-10T12:13:13;8.80;;;6.38;;
51614;SDS011;37695;52.960;6.188;2023-05-10T12:15:40;11.75;;;7.25;;
51614;SDS011;37695;52.960;6.188;2023-05-10T12:18:07;8.98;;;6.60;;
51614;SDS011;37695;52.960;6.188;2023-05-10T12:20:36;9.05;;;6.90;;
51614;SDS011;37695;52.960;6.188;2023-05-10T12:23:03;10.68;;;6.95;;
51614;SDS011;37695;52.960;6.188;2023-05-10T12:25:32;9.30;;;6.97;;
51614;SDS011;37695;52.960;6.188;2023-05-10T12:27:59;8.73;;;6.15;;
51614;SDS011;37695;52.960;6.188;2023-05-10T12:30:28;8.07;;;6.05;;
51614;SDS011;37695;52.960;6.188;2023-05-10T12:33:09;8.77;;;6.18;;
51614;SDS011;37695;52.960;6.188;2023-05-10T12:35:46;10.15;;;6.50;;
51614;SDS011;37695;52.960;6.188;2023-05-10T12:38:26;9.65;;;7.03;;
51614;SDS011;37695;52.960;6.188;2023-05-10T12:40:53;9.63;;;7.22;;
51614;SDS011;37695;52.960;6.188;2023-05-10T12:43:19;8.20;;;6.50;;
51614;SDS011;37695;52.960;6.188;2023-05-10T12:45:45;10.75;;;7.13;;
51614;SDS011;37695;52.960;6.188;2023-05-10T12:48:13;8.68;;;7.00;;
51614;SDS011;37695;52.960;6.188;2023-05-10T12:50:38;10.45;;;6.95;;
51614;SDS011;37695;52.960;6.188;2023-05-10T12:53:04;9.10;;;6.88;;
51614;SDS011;37695;52.960;6.188;2023-05-10T12:55:29;8.70;;;6.70;;
51614;SDS011;37695;52.960;6.188;2023-05-10T12:57:55;8.40;;;6.60;;
51614;SDS011;37695;52.960;6.188;2023-05-10T13:00:20;8.40;;;6.55;;
51614;SDS011;37695;52.960;6.188;2023-05-10T13:02:46;8.02;;;5.80;;
51614;SDS011;37695;52.960;6.188;2023-05-10T13:05:12;6.70;;;5.68;;
51614;SDS011;37695;52.960;6.188;2023-05-10T13:07:38;7.05;;;5.68;;
51614;SDS011;37695;52.960;6.188;2023-05-10T13:10:04;7.90;;;5.88;;
51614;SDS011;37695;52.960;6.188;2023-05-10T13:12:31;7.82;;;5.82;;
51614;SDS011;37695;52.960;6.188;2023-05-10T13:14:56;7.40;;;5.82;;
51614;SDS011;37695;52.960;6.188;2023-05-10T13:17:22;9.57;;;6.15;;
51614;SDS011;37695;52.960;6.188;2023-05-10T13:19:47;8.25;;;6.65;;
51614;SDS011;37695;52.960;6.188;2023-05-10T13:22:13;9.93;;;6.43;;
51614;SDS011;37695;52.960;6.188;2023-05-10T13:24:38;8.02;;;6.47;;
51614;SDS011;37695;52.960;6.188;2023-05-10T13:27:04;7.85;;;6.00;;
51614;SDS011;37695;52.960;6.188;2023-05-10T13:29:30;7.45;;;6.40;;
51614;SDS011;37695;52.960;6.188;2023-05-10T13:31:55;8.95;;;6.40;;
51614;SDS011;37695;52.960;6.188;2023-05-10T13:34:21;8.82;;;6.40;;
51614;SDS011;37695;52.960;6.188;2023-05-10T13:36:47;9.25;;;6.50;;
51614;SDS011;37695;52.960;6.188;2023-05-10T13:39:13;7.50;;;5.75;;
51614;SDS011;37695;52.960;6.188;2023-05-10T13:41:39;7.97;;;5.88;;
51614;SDS011;37695;52.960;6.188;2023-05-10T13:44:05;9.20;;;6.15;;
51614;SDS011;37695;52.960;6.188;2023-05-10T13:46:30;6.82;;;5.55;;
51614;SDS011;37695;52.960;6.188;2023-05-10T13:48:56;9.23;;;5.53;;
51614;SDS011;37695;52.960;6.188;2023-05-10T13:51:22;8.82;;;6.10;;
51614;SDS011;37695;52.960;6.188;2023-05-10T13:53:47;7.45;;;5.68;;
51614;SDS011;37695;52.960;6.188;2023-05-10T13:56:13;8.25;;;4.90;;
51614;SDS011;37695;52.960;6.188;2023-05-10T13:58:39;6.50;;;5.20;;
51614;SDS011;37695;52.960;6.188;2023-05-10T14:01:04;7.10;;;5.15;;
51614;SDS011;37695;52.960;6.188;2023-05-10T14:03:30;6.32;;;5.13;;
51614;SDS011;37695;52.960;6.188;2023-05-10T14:05:56;7.53;;;4.95;;
51614;SDS011;37695;52.960;6.188;2023-05-10T14:08:22;5.78;;;4.32;;
51614;SDS011;37695;52.960;6.188;2023-05-10T14:10:47;8.15;;;4.22;;
51614;SDS011;37695;52.960;6.188;2023-05-10T14:13:14;4.57;;;3.60;;
51614;SDS011;37695;52.960;6.188;2023-05-10T14:15:40;5.63;;;3.67;;
51614;SDS011;37695;52.960;6.188;2023-05-10T14:18:06;6.45;;;4.38;;
51614;SDS011;37695;52.960;6.188;2023-05-10T14:20:31;5.20;;;4.10;;
51614;SDS011;37695;52.960;6.188;2023-05-10T14:22:58;5.47;;;4.40;;
51614;SDS011;37695;52.960;6.188;2023-05-10T14:25:24;5.78;;;4.47;;
51614;SDS011;37695;52.960;6.188;2023-05-10T14:27:50;6.40;;;4.00;;
51614;SDS011;37695;52.960;6.188;2023-05-10T14:30:16;5.55;;;4.05;;
51614;SDS011;37695;52.960;6.188;2023-05-10T14:32:42;5.18;;;4.35;;
51614;SDS011;37695;52.960;6.188;2023-05-10T14:35:07;6.38;;;4.07;;
51614;SDS011;37695;52.960;6.188;2023-05-10T14:37:33;6.15;;;4.60;;
51614;SDS011;37695;52.960;6.188;2023-05-10T14:39:59;6.95;;;4.40;;
51614;SDS011;37695;52.960;6.188;2023-05-10T14:42:25;5.93;;;3.97;;
51614;SDS011;37695;52.960;6.188;2023-05-10T14:44:51;5.65;;;4.40;;
51614;SDS011;37695;52.960;6.188;2023-05-10T14:47:16;5.85;;;4.55;;
51614;SDS011;37695;52.960;6.188;2023-05-10T14:49:42;6.95;;;4.43;;
51614;SDS011;37695;52.960;6.188;2023-05-10T14:52:07;5.78;;;3.92;;
51614;SDS011;37695;52.960;6.188;2023-05-10T14:54:33;4.85;;;3.47;;
51614;SDS011;37695;52.960;6.188;2023-05-10T14:56:58;4.63;;;3.08;;
51614;SDS011;37695;52.960;6.188;2023-05-10T14:59:25;4.72;;;3.30;;
51614;SDS011;37695;52.960;6.188;2023-05-10T15:01:50;6.68;;;3.20;;
51614;SDS011;37695;52.960;6.188;2023-05-10T15:04:16;5.18;;;3.47;;
51614;SDS011;37695;52.960;6.188;2023-05-10T15:06:42;5.07;;;3.00;;
51614;SDS011;37695;52.960;6.188;2023-05-10T15:09:07;5.10;;;2.63;;
51614;SDS011;37695;52.960;6.188;2023-05-10T15:11:33;5.00;;;2.50;;
51614;SDS011;37695;52.960;6.188;2023-05-10T15:14:00;3.22;;;2.17;;
51614;SDS011;37695;52.960;6.188;2023-05-10T15:16:26;4.20;;;2.97;;
51614;SDS011;37695;52.960;6.188;2023-05-10T15:18:52;5.55;;;3.35;;
51614;SDS011;37695;52.960;6.188;2023-05-10T15:21:17;6.68;;;4.07;;
51614;SDS011;37695;52.960;6.188;2023-05-10T15:23:43;7.78;;;4.45;;
51614;SDS011;37695;52.960;6.188;2023-05-10T15:26:09;8.48;;;5.40;;